Time;durP1;ratioP1;P1;durP2;ratioP2;P2;SDS_P1;SDS_P2;PMS_P1;PMS_P2;Temp;Humidity;BMP_temperature;BMP_pressure;BME280_temperature;BME280_humidity;BME280_pressure;Samples;Min_cycle;Max_cycle;Signal;HPM_P1;HPM_P2
2022/09/06 00:02:20;;;;;;;4.65;3.33;;;;;;;15.45;65.44;95494.72;5133048;27;20031;-76
2022/09/06 00:04:47;;;;;;;3.78;3.38;;;;;;;15.45;65.82;95483.44;5131932;27;20039;-76
2022/09/06 00:07:12;;;;;;;5.68;3.78;;;;;;;15.38;65.72;95489.22;5115868;27;20034;-76
2022/09/06 00:09:37;;;;;;;4.07;3.22;;;;;;;15.35;65.74;95488.66;5110033;27;20416;-76
2022/09/06 00:12:03;;;;;;;3.90;3.50;;;;;;;15.31;65.96;95492.53;5131611;27;20019;-76
2022/09/06 00:14:28;;;;;;;3.85;3.40;;;;;;;15.12;66.41;95488.97;5118060;27;20035;-76
2022/09/06 00:16:54;;;;;;;4.88;4.18;;;;;;;15.08;66.27;95486.78;5132801;27;20023;-76
2022/09/06 00:19:19;;;;;;;4.00;3.55;;;;;;;15.11;66.13;95492.56;5096294;27;20351;-76
2022/09/06 00:21:45;;;;;;;4.30;3.72;;;;;;;14.99;66.45;95485.81;5128579;27;20027;-76
2022/09/06 00:24:11;;;;;;;4.75;3.78;;;;;;;15.09;66.25;95486.63;5135820;27;20034;-76
2022/09/06 00:26:36;;;;;;;4.47;3.67;;;;;;;15.01;66.19;95478.63;5137308;27;20472;-76
2022/09/06 00:29:01;;;;;;;3.92;3.53;;;;;;;15.09;66.05;95478.78;5133033;27;20031;-76
2022/09/06 00:31:27;;;;;;;4.57;3.63;;;;;;;15.10;65.92;95480.44;5126376;27;20027;-76
2022/09/06 00:33:53;;;;;;;5.35;3.80;;;;;;;15.06;65.96;95484.28;5134089;27;20039;-76
2022/09/06 00:36:18;;;;;;;4.47;3.78;;;;;;;14.90;66.27;95469.13;5133774;27;20051;-76
2022/09/06 00:38:44;;;;;;;4.38;3.55;;;;;;;14.92;66.47;95480.28;5097029;27;20042;-76
2022/09/06 00:41:10;;;;;;;5.72;4.25;;;;;;;14.71;67.18;95480.44;5093639;27;20449;-76
2022/09/06 00:43:36;;;;;;;5.63;3.72;;;;;;;14.82;66.95;95483.84;5110417;28;20047;-76
2022/09/06 00:46:02;;;;;;;4.10;3.58;;;;;;;14.85;66.70;95476.59;5115234;27;20060;-76
2022/09/06 00:48:27;;;;;;;4.18;3.40;;;;;;;14.89;66.54;95477.94;5084079;27;20161;-76
2022/09/06 00:50:55;;;;;;;4.70;3.92;;;;;;;14.89;66.52;95475.34;5109092;27;20437;-76
2022/09/06 00:53:20;;;;;;;5.45;3.58;;;;;;;14.90;66.44;95469.13;5114669;27;20503;-76
2022/09/06 00:55:46;;;;;;;4.35;3.28;;;;;;;14.95;66.17;95468.72;5131031;27;20084;-76
2022/09/06 00:58:11;;;;;;;4.53;3.58;;;;;;;14.95;66.06;95468.72;5114841;27;20054;-76
2022/09/06 01:00:37;;;;;;;5.43;3.38;;;;;;;14.91;66.10;95481.25;5108045;27;20038;-76
2022/09/06 01:03:02;;;;;;;6.22;3.65;;;;;;;14.89;66.06;95472.72;5110679;28;20032;-76
2022/09/06 01:05:36;;;;;;;5.03;3.40;;;;;;;14.90;66.08;95478.78;5112733;27;20027;-76
2022/09/06 01:08:39;;;;;;;6.50;3.65;;;;;;;14.85;66.06;95484.44;5114465;27;20415;-76
2022/09/06 01:11:23;;;;;;;4.25;3.50;;;;;;;14.86;66.14;95485.25;5127358;27;20496;-76
2022/09/06 01:14:07;;;;;;;5.15;3.58;;;;;;;14.90;66.08;95486.63;5130579;27;20187;-76
2022/09/06 01:16:48;;;;;;;6.00;3.33;;;;;;;14.87;66.02;95485.09;5130880;27;20027;-76
2022/09/06 01:19:28;;;;;;;;;;;;;;;14.78;66.51;95482.50;5131201;27;20027;-76
2022/09/06 01:22:06;;;;;;;4.22;3.50;;;;;;;14.67;66.73;95479.03;5129368;27;19916;-76
2022/09/06 01:24:31;;;;;;;4.00;3.45;;;;;;;14.66;66.76;95482.63;5135613;27;20142;-76
2022/09/06 01:27:09;;;;;;;3.65;3.35;;;;;;;14.71;66.65;95487.44;5151982;27;20101;-76
2022/09/06 01:29:43;;;;;;;5.47;3.55;;;;;;;14.70;66.73;95491.84;5150445;27;20412;-76
2022/09/06 01:32:14;;;;;;;5.25;3.38;;;;;;;14.75;66.25;95489.63;5131612;27;20553;-76
2022/09/06 01:34:46;;;;;;;6.53;4.07;;;;;;;14.65;66.49;95475.72;5113120;27;20031;-76
2022/09/06 01:37:13;;;;;;;4.75;3.47;;;;;;;14.71;66.47;95484.84;5112542;27;20397;-76
2022/09/06 01:39:39;;;;;;;3.95;3.45;;;;;;;14.65;66.40;95472.28;5111898;27;20030;-76
2022/09/06 01:42:14;;;;;;;3.60;3.05;;;;;;;14.75;66.17;95468.72;5113462;27;20053;-76
2022/09/06 01:44:42;;;;;;;4.38;3.15;;;;;;;14.75;65.97;95465.28;5114878;27;20051;-76
2022/09/06 01:47:14;;;;;;;4.25;3.63;;;;;;;14.74;66.23;95474.91;5114319;27;20074;-76
2022/09/06 01:49:43;;;;;;;4.10;3.50;;;;;;;14.68;66.35;95461.56;5120171;27;20055;-76
2022/09/06 01:52:59;;;;;;;7.15;3.50;;;;;;;14.73;66.29;95454.13;5110997;28;20072;-76
2022/09/06 01:55:31;;;;;;;3.92;3.10;;;;;;;14.68;66.44;95456.31;5092820;28;20048;-76
2022/09/06 01:58:35;;;;;;;5.57;3.60;;;;;;;14.67;66.55;95459.91;5110385;27;20031;-76
2022/09/06 02:01:34;;;;;;;4.15;3.45;;;;;;;14.57;66.81;95453.84;5072110;28;20024;-76
2022/09/06 02:04:03;;;;;;;4.63;3.60;;;;;;;14.51;66.83;95448.19;5074549;28;20055;-76
2022/09/06 02:06:40;;;;;;;3.83;3.30;;;;;;;14.57;66.77;95457.28;5097989;28;20036;-76
2022/09/06 02:09:07;;;;;;;4.68;3.50;;;;;;;14.61;66.53;95452.63;5093426;28;20470;-76
2022/09/06 02:11:38;;;;;;;6.43;3.50;;;;;;;14.62;66.64;95449.03;5110438;28;20020;-76
2022/09/06 02:14:06;;;;;;;;;;;;;;;14.58;66.66;95453.72;5110929;28;20465;-76
2022/09/06 02:16:31;;;;;;;4.10;3.42;;;;;;;14.51;66.69;95444.72;5110448;27;19911;-76
2022/09/06 02:19:05;;;;;;;6.57;3.55;;;;;;;14.46;66.87;95452.97;5076364;28;20035;-76
2022/09/06 02:21:33;;;;;;;4.10;3.35;;;;;;;14.37;67.22;95440.69;5093890;28;20032;-76
2022/09/06 02:24:00;;;;;;;4.72;3.75;;;;;;;14.36;67.24;95446.09;5076443;28;20043;-76
2022/09/06 02:26:27;;;;;;;5.03;3.30;;;;;;;14.41;66.95;95446.50;5107142;28;20106;-76
2022/09/06 02:28:53;;;;;;;3.72;3.33;;;;;;;14.43;66.83;95447.19;5113677;27;20062;-76
2022/09/06 02:31:27;;;;;;;4.32;3.42;;;;;;;14.40;67.07;95442.22;5096629;28;20483;-76
2022/09/06 02:33:53;;;;;;;5.93;3.40;;;;;;;14.37;66.93;95445.09;5114073;28;20042;-76
2022/09/06 02:36:18;;;;;;;6.88;3.88;;;;;;;14.29;67.27;95454.47;5093271;28;20413;-74
2022/09/06 02:38:44;;;;;;;8.40;3.67;;;;;;;14.09;67.72;95437.88;5076136;28;20028;-74
2022/09/06 02:41:10;;;;;;;5.25;3.80;;;;;;;14.00;68.57;95453.53;5093167;28;20047;-74
2022/09/06 02:43:35;;;;;;;6.72;3.80;;;;;;;14.07;68.33;95454.69;5097671;28;20141;-74
2022/09/06 02:46:01;;;;;;;4.75;3.45;;;;;;;14.07;68.48;95452.88;5130798;28;20035;-74
2022/09/06 02:48:26;;;;;;;4.72;3.85;;;;;;;14.05;68.51;95456.59;5113317;28;20039;-74
2022/09/06 02:50:52;;;;;;;7.30;4.00;;;;;;;14.06;68.68;95459.06;5113356;28;20031;-74
2022/09/06 02:53:18;;;;;;;4.63;3.90;;;;;;;14.08;68.46;95461.56;5119658;27;20036;-73
2022/09/06 02:55:45;;;;;;;6.00;3.92;;;;;;;14.11;68.27;95457.84;5109971;28;20024;-74
2022/09/06 02:58:11;;;;;;;4.13;3.47;;;;;;;14.07;68.35;95454.69;5093043;28;20098;-74
2022/09/06 03:00:36;;;;;;;4.93;3.88;;;;;;;14.14;68.01;95457.56;5109932;28;20031;-74
2022/09/06 03:03:02;;;;;;;6.90;4.03;;;;;;;14.11;68.31;95457.84;5107526;28;20088;-73
2022/09/06 03:05:27;;;;;;;4.20;3.80;;;;;;;14.02;68.62;95454.25;5113334;28;20023;-74
2022/09/06 03:07:53;;;;;;;4.63;3.80;;;;;;;13.90;69.16;95450.06;5134196;27;20461;-74
2022/09/06 03:10:18;;;;;;;5.07;3.90;;;;;;;13.86;69.32;95455.56;5099291;27;20114;-74
2022/09/06 03:12:44;;;;;;;5.65;3.90;;;;;;;13.89;69.21;95448.41;5117858;27;20031;-74
2022/09/06 03:15:10;;;;;;;5.68;4.00;;;;;;;13.98;68.97;95458.06;5117142;27;20063;-74
2022/09/06 03:17:36;;;;;;;4.75;4.07;;;;;;;14.02;68.92;95452.47;5134067;27;20023;-74
2022/09/06 03:20:02;;;;;;;7.28;4.28;;;;;;;14.05;68.76;95446.97;5098977;27;20083;-74
2022/09/06 03:22:28;;;;;;;5.13;4.40;;;;;;;14.04;68.64;95453.16;5116882;27;20114;-74
2022/09/06 03:24:53;;;;;;;6.95;4.05;;;;;;;14.02;68.86;95449.03;5117133;27;20047;-74
2022/09/06 03:27:19;;;;;;;5.82;4.30;;;;;;;13.96;69.18;95449.56;5133963;27;20027;-74
2022/09/06 03:29:44;;;;;;;7.03;4.28;;;;;;;14.00;68.84;95443.91;5124521;27;20035;-74
2022/09/06 03:32:10;;;;;;;6.75;4.43;;;;;;;14.00;68.96;95453.53;5113335;28;20035;-74
2022/09/06 03:34:35;;;;;;;5.22;4.18;;;;;;;14.01;68.97;95457.81;5096437;28;20495;-74
2022/09/06 03:37:01;;;;;;;5.72;4.63;;;;;;;14.00;69.03;95462.19;5114534;28;20062;-74
2022/09/06 03:39:26;;;;;;;5.10;4.38;;;;;;;13.99;68.96;95463.16;5128307;27;20031;-74
2022/09/06 03:41:51;;;;;;;6.53;4.93;;;;;;;13.96;69.14;95462.63;5133780;27;20035;-75
2022/09/06 03:44:17;;;;;;;7.13;4.90;;;;;;;13.96;69.34;95462.63;5135286;27;20047;-75
2022/09/06 03:46:42;;;;;;;5.45;4.95;;;;;;;13.98;69.20;95460.69;5134860;27;20023;-75
2022/09/06 03:49:09;;;;;;;7.28;5.05;;;;;;;13.88;69.14;95459.84;5112587;28;20039;-75
2022/09/06 03:51:34;;;;;;;6.90;5.10;;;;;;;13.95;69.46;95467.00;5113037;28;20102;-75
2022/09/06 03:54:00;;;;;;;8.15;5.25;;;;;;;13.99;69.25;95468.41;5096099;27;20607;-75
2022/09/06 03:56:25;;;;;;;6.88;5.22;;;;;;;13.95;69.23;95456.53;5115860;27;20023;-75
2022/09/06 03:58:51;;;;;;;7.35;5.15;;;;;;;13.98;69.15;95466.72;5124078;27;20517;-75
2022/09/06 04:01:16;;;;;;;5.22;4.55;;;;;;;14.04;68.88;95470.59;5078938;28;20031;-75
2022/09/06 04:03:42;;;;;;;5.88;4.97;;;;;;;14.02;69.12;95472.53;5095778;28;20493;-75
2022/09/06 04:06:07;;;;;;;6.38;5.30;;;;;;;14.03;69.18;95476.78;5112832;27;20036;-75
2022/09/06 04:08:33;;;;;;;8.70;5.72;;;;;;;13.85;69.19;95458.31;5095543;28;20093;-75
2022/09/06 04:10:59;;;;;;;6.70;5.90;;;;;;;13.96;69.15;95468.66;5095685;28;20076;-75
2022/09/06 04:13:27;;;;;;;6.78;6.05;;;;;;;13.99;69.06;95480.63;5095707;28;20530;-75
2022/09/06 04:15:52;;;;;;;6.97;6.25;;;;;;;13.83;69.47;95476.72;5108579;27;20401;-75
2022/09/06 04:18:18;;;;;;;7.30;5.95;;;;;;;13.95;69.22;95474.81;5132542;27;20042;-75
2022/09/06 04:20:48;;;;;;;7.43;6.10;;;;;;;13.89;69.27;95474.53;5115972;27;20019;-75
2022/09/06 04:23:14;;;;;;;7.93;6.45;;;;;;;13.92;69.93;95482.94;5115875;27;20035;-75
2022/09/06 04:25:39;;;;;;;11.10;7.43;;;;;;;13.90;69.32;95470.97;5105754;27;20609;-75
2022/09/06 04:28:04;;;;;;;8.40;7.35;;;;;;;13.99;69.34;95480.63;5117332;27;20039;-75
2022/09/06 04:30:30;;;;;;;8.60;7.30;;;;;;;14.01;69.40;95476.09;5144851;27;20413;-75
2022/09/06 04:32:55;;;;;;;8.88;7.50;;;;;;;14.02;69.30;95483.81;5115381;27;20035;-75
2022/09/06 04:35:21;;;;;;;11.85;7.72;;;;;;;13.98;69.47;95482.41;5110455;28;20027;-75
2022/09/06 04:37:46;;;;;;;10.05;7.72;;;;;;;13.98;69.37;95486.78;5111273;28;20512;-74
2022/09/06 04:40:12;;;;;;;10.15;8.05;;;;;;;14.02;69.26;95480.38;5111256;28;20417;-75
2022/09/06 04:42:37;;;;;;;9.00;8.07;;;;;;;13.96;69.00;95463.44;5115851;27;20024;-75
2022/09/06 04:45:04;;;;;;;12.65;8.85;;;;;;;14.04;69.05;95481.03;5094896;28;20489;-74
2022/09/06 04:47:29;;;;;;;10.07;8.48;;;;;;;14.05;69.00;95480.09;5113098;28;20100;-75
2022/09/06 04:49:55;;;;;;;9.13;8.23;;;;;;;13.99;69.43;95483.25;5112038;28;20486;-75
2022/09/06 04:52:20;;;;;;;9.10;7.93;;;;;;;14.03;69.44;95480.22;5111864;27;20081;-74
2022/09/06 04:54:46;;;;;;;11.35;9.07;;;;;;;14.17;69.14;95476.41;5078153;28;20093;-75
2022/09/06 04:57:11;;;;;;;8.82;7.93;;;;;;;14.54;68.37;95473.22;5120900;27;20601;-75
2022/09/06 04:59:36;;;;;;;9.45;8.18;;;;;;;15.24;65.75;95476.56;5124083;27;20024;-75
2022/09/06 05:02:02;;;;;;;11.23;7.90;;;;;;;15.96;63.45;95466.47;5120979;27;20035;-75
2022/09/06 05:04:28;;;;;;;8.20;7.40;;;;;;;16.63;60.96;95473.19;5118209;27;20494;-75
2022/09/06 05:07:03;;;;;;;9.07;7.80;;;;;;;17.30;58.74;95472.81;5120459;27;20028;-76
2022/09/06 05:09:29;;;;;;;8.00;7.20;;;;;;;17.74;57.18;95452.59;5103008;27;20037;-75
2022/09/06 05:11:55;;;;;;;8.70;7.18;;;;;;;18.29;54.86;95465.38;5101258;27;20092;-75
2022/09/06 05:14:20;;;;;;;9.07;7.40;;;;;;;19.00;53.04;95465.91;5102649;27;20057;-75
2022/09/06 05:16:46;;;;;;;7.88;6.72;;;;;;;19.28;52.77;95449.78;5120304;27;20410;-75
2022/09/06 05:19:11;;;;;;;8.27;7.22;;;;;;;19.75;50.98;95459.63;5119354;27;20039;-75
2022/09/06 05:21:37;;;;;;;9.05;6.82;;;;;;;19.95;50.08;95458.28;5132043;27;20034;-75
2022/09/06 05:24:02;;;;;;;7.38;6.60;;;;;;;19.77;50.61;95455.03;5114637;27;20035;-75
2022/09/06 05:26:28;;;;;;;9.25;5.68;;;;;;;19.30;52.11;95458.34;5131745;27;20019;-75
2022/09/06 05:28:53;;;;;;;6.82;4.75;;;;;;;19.26;52.49;95452.59;5126617;27;20429;-74
2022/09/06 05:31:29;;;;;;;12.20;5.22;;;;;;;19.08;53.40;95452.72;5131316;27;20035;-75
2022/09/06 05:33:56;;;;;;;6.03;4.95;;;;;;;19.05;53.61;95462.78;5104615;27;20517;-75
2022/09/06 05:36:22;;;;;;;10.23;6.82;;;;;;;18.88;53.16;95461.94;5106141;27;20150;-75
2022/09/06 05:38:51;;;;;;;10.80;5.38;;;;;;;18.65;54.58;95464.34;5124115;27;20107;-75
2022/09/06 05:41:16;;;;;;;10.48;5.60;;;;;;;18.13;56.22;95465.31;5117860;27;20020;-75
2022/09/06 05:43:45;;;;;;;7.10;5.68;;;;;;;17.98;57.10;95457.19;5109789;27;20038;-75
2022/09/06 05:46:11;;;;;;;8.93;5.95;;;;;;;18.00;56.97;95468.38;5117544;27;20023;-75
2022/09/06 05:48:36;;;;;;;7.35;5.53;;;;;;;18.07;57.20;95468.56;5085060;28;20077;-75
2022/09/06 05:51:04;;;;;;;6.10;5.50;;;;;;;18.17;57.17;95461.38;5107569;27;20027;-75
2022/09/06 05:53:34;;;;;;;6.20;5.43;;;;;;;18.27;56.96;95467.31;5103064;27;20035;-75
2022/09/06 05:55:59;;;;;;;6.13;5.20;;;;;;;18.38;56.86;95470.66;5111880;27;20504;-75
2022/09/06 05:58:25;;;;;;;6.80;5.43;;;;;;;18.47;56.33;95464.44;5124359;27;20084;-75
2022/09/06 06:00:50;;;;;;;7.95;5.43;;;;;;;18.37;56.24;95467.22;5092142;27;20027;-75
2022/09/06 06:03:16;;;;;;;8.50;7.57;;;;;;;18.47;55.89;95465.28;5123868;27;20019;-76
2022/09/06 06:05:46;;;;;;;12.32;7.30;;;;;;;18.55;55.47;95464.47;5106491;27;20042;-75
2022/09/06 06:08:12;;;;;;;8.98;7.82;;;;;;;18.57;55.68;95451.97;5112490;27;20127;-77
2022/09/06 06:10:38;;;;;;;7.05;5.75;;;;;;;18.59;56.12;95462.34;5092638;27;20589;-75
2022/09/06 06:13:03;;;;;;;9.10;8.13;;;;;;;18.51;56.04;95452.63;5120685;27;20031;-74
2022/09/06 06:15:31;;;;;;;13.98;7.65;;;;;;;18.47;55.42;95452.13;5113185;28;20027;-74
2022/09/06 06:17:56;;;;;;;11.20;8.68;;;;;;;18.45;56.26;95448.00;5095962;27;20107;-74
2022/09/06 06:20:22;;;;;;;10.85;9.13;;;;;;;18.45;55.60;95434.84;5135925;27;20480;-74
2022/09/06 06:22:47;;;;;;;10.63;9.52;;;;;;;18.46;55.86;95441.75;5109855;27;20038;-74
2022/09/06 06:25:13;;;;;;;10.98;9.27;;;;;;;18.50;56.08;95456.25;5114929;27;20034;-74
2022/09/06 06:27:38;;;;;;;11.50;10.00;;;;;;;18.59;55.94;95451.81;5130708;27;20027;-75
2022/09/06 06:30:04;;;;;;;10.95;9.30;;;;;;;18.55;55.56;95446.03;5098215;28;20039;-75
2022/09/06 06:32:29;;;;;;;11.68;9.45;;;;;;;18.69;55.52;95444.59;5128567;27;20055;-75
2022/09/06 06:34:55;;;;;;;10.75;9.35;;;;;;;18.66;55.39;95437.84;5108350;28;20100;-75
2022/09/06 06:37:20;;;;;;;11.55;9.35;;;;;;;18.73;55.19;95440.69;5110963;28;20027;-74
2022/09/06 06:39:46;;;;;;;10.90;8.40;;;;;;;18.80;55.65;95444.31;5107155;27;20034;-74
2022/09/06 06:42:12;;;;;;;12.32;8.77;;;;;;;18.85;55.26;95442.03;5134360;27;20042;-74
2022/09/06 06:44:38;;;;;;;11.43;8.70;;;;;;;19.01;54.33;95435.16;5118057;27;20059;-75
2022/09/06 06:47:03;;;;;;;9.63;7.40;;;;;;;19.23;52.99;95441.56;5119323;27;20031;-74
2022/09/06 06:49:29;;;;;;;8.93;6.60;;;;;;;19.24;52.85;95441.38;5124098;27;20019;-74
2022/09/06 06:51:54;;;;;;;7.63;6.57;;;;;;;19.14;53.30;95438.13;5137206;27;20374;-74
2022/09/06 06:54:20;;;;;;;9.75;6.93;;;;;;;19.16;53.70;95436.94;5128902;27;20035;-74
2022/09/06 06:56:45;;;;;;;9.20;7.07;;;;;;;19.26;53.10;95436.78;5123350;27;20031;-74
2022/09/06 06:59:11;;;;;;;9.18;7.43;;;;;;;19.33;53.34;95443.03;5123706;27;20027;-74
2022/09/06 07:01:36;;;;;;;9.15;7.57;;;;;;;19.40;52.77;95437.94;5110461;27;20042;-74
2022/09/06 07:04:02;;;;;;;10.10;7.95;;;;;;;19.48;53.38;95435.28;5107823;27;20029;-74
2022/09/06 07:06:28;;;;;;;8.90;7.30;;;;;;;19.63;53.74;95438.88;5137825;27;20476;-75
2022/09/06 07:08:56;;;;;;;7.68;5.97;;;;;;;19.79;53.26;95445.13;5134199;27;20027;-74
2022/09/06 07:11:22;;;;;;;8.07;5.82;;;;;;;19.92;53.28;95444.59;5119434;27;20516;-75
2022/09/06 07:13:47;;;;;;;10.73;5.78;;;;;;;20.14;52.44;95443.03;5131734;27;20031;-73
2022/09/06 07:16:20;;;;;;;8.75;5.20;;;;;;;20.12;52.00;95437.13;5110627;27;20035;-74
2022/09/06 07:18:46;;;;;;;9.02;5.68;;;;;;;20.26;51.86;95445.16;5111760;27;20031;-74
2022/09/06 07:21:15;;;;;;;9.02;5.68;;;;;;;20.28;50.73;95437.03;5131084;27;20120;-74
2022/09/06 07:23:42;;;;;;;7.28;4.75;;;;;;;20.53;50.09;95446.53;5113468;27;20020;-74
2022/09/06 07:26:11;;;;;;;6.53;5.63;;;;;;;20.46;50.90;95450.81;5098009;27;20040;-75
2022/09/06 07:28:37;;;;;;;7.97;5.75;;;;;;;20.39;50.70;95449.84;5100387;27;20031;-75
2022/09/06 07:31:02;;;;;;;8.27;5.63;;;;;;;20.52;51.20;95449.31;5122176;27;20382;-76
2022/09/06 07:33:28;;;;;;;8.43;5.80;;;;;;;20.74;50.21;95456.47;5129714;27;20404;-75
2022/09/06 07:35:55;;;;;;;7.13;5.70;;;;;;;20.68;50.90;95453.72;5132973;27;20027;-76
2022/09/06 07:38:20;;;;;;;8.95;5.65;;;;;;;20.78;50.47;95446.38;5119287;27;20097;-76
2022/09/06 07:40:52;;;;;;;7.05;5.50;;;;;;;20.89;49.58;95451.25;5133260;27;20034;-76
2022/09/06 07:43:17;;;;;;;9.38;6.00;;;;;;;20.69;50.29;95455.34;5115640;27;20521;-76
2022/09/06 07:45:43;;;;;;;8.82;5.53;;;;;;;20.58;50.02;95461.03;5142173;27;20050;-76
2022/09/06 07:48:08;;;;;;;7.20;5.90;;;;;;;20.46;50.23;95450.81;5132387;27;20478;-75
2022/09/06 07:50:33;;;;;;;7.63;5.72;;;;;;;20.61;50.50;95453.56;5117139;27;20031;-76
2022/09/06 07:53:06;;;;;;;11.18;5.90;;;;;;;20.80;50.34;95449.66;5109331;27;20412;-76
2022/09/06 07:55:31;;;;;;;6.78;5.43;;;;;;;20.88;48.83;95451.44;5114139;27;20120;-75
2022/09/06 07:57:56;;;;;;;7.38;5.18;;;;;;;21.10;49.50;95447.97;5113464;27;20491;-76
2022/09/06 08:00:22;;;;;;;6.35;5.25;;;;;;;21.18;48.21;95445.28;5122651;27;20035;-75
2022/09/06 08:02:47;;;;;;;6.20;4.65;;;;;;;21.30;48.20;95437.75;5127512;27;20023;-76
2022/09/06 08:05:13;;;;;;;6.10;4.80;;;;;;;21.46;47.55;95446.56;5112311;27;20036;-76
2022/09/06 08:07:38;;;;;;;7.07;5.28;;;;;;;21.53;47.57;95436.91;5110368;28;20028;-76
2022/09/06 08:10:04;;;;;;;7.07;5.13;;;;;;;21.61;48.41;95428.91;5127390;27;20057;-76
2022/09/06 08:12:29;;;;;;;6.18;5.50;;;;;;;21.72;48.30;95436.41;5126663;27;20122;-76
2022/09/06 08:14:55;;;;;;;6.00;5.40;;;;;;;21.81;47.90;95429.19;5112191;27;20496;-76
2022/09/06 08:17:20;;;;;;;6.60;5.65;;;;;;;21.72;48.03;95433.75;5113933;27;20404;-77
2022/09/06 08:19:46;;;;;;;7.55;5.30;;;;;;;21.75;48.33;95427.28;5122111;27;20027;-77
2022/09/06 08:22:11;;;;;;;7.22;5.60;;;;;;;21.66;47.32;95431.84;5108108;27;20039;-77
2022/09/06 08:24:37;;;;;;;8.32;5.50;;;;;;;21.75;47.80;95430.75;5125048;27;20023;-77
2022/09/06 08:27:06;;;;;;;7.75;5.65;;;;;;;21.68;47.68;95392.00;5087863;27;20470;-77
2022/09/06 08:29:32;;;;;;;7.95;5.05;;;;;;;22.01;47.58;95425.03;5121898;27;20031;-76
2022/09/06 08:31:57;;;;;;;7.68;5.57;;;;;;;22.03;47.12;95430.13;5098452;27;20427;-76
2022/09/06 08:34:23;;;;;;;8.43;5.63;;;;;;;22.05;46.77;95428.13;5115715;27;20076;-77
2022/09/06 08:36:48;;;;;;;10.95;5.30;;;;;;;22.18;47.37;95425.69;5112996;27;20523;-77
2022/09/06 08:39:14;;;;;;;6.53;5.60;;;;;;;22.32;46.97;95424.03;5119080;27;20015;-76
2022/09/06 08:41:45;;;;;;;7.72;5.40;;;;;;;22.44;47.95;95419.88;5125045;27;20031;-76
2022/09/06 08:44:16;;;;;;;7.70;5.50;;;;;;;22.54;47.15;95416.97;5124869;27;20059;-76
2022/09/06 08:46:46;;;;;;;;;;;;;;;22.69;46.38;95406.31;5100083;28;20040;-77
2022/09/06 08:49:11;;;;;;;6.00;5.13;;;;;;;22.75;46.83;95406.38;5116545;27;19926;-77
2022/09/06 08:51:45;;;;;;;7.25;4.90;;;;;;;22.88;46.21;95400.41;5113258;27;20432;-77
2022/09/06 08:54:32;;;;;;;10.73;5.40;;;;;;;22.85;45.13;95394.66;5136507;27;20055;-77
2022/09/06 08:57:35;;;;;;;12.88;5.43;;;;;;;22.84;44.40;95393.81;5110797;27;20065;-76
2022/09/06 09:00:02;;;;;;;7.28;5.03;;;;;;;22.85;45.61;95381.44;5125996;27;20108;-77
2022/09/06 09:02:50;;;;;;;6.38;5.43;;;;;;;22.94;44.18;95386.38;5092752;27;20073;-77
2022/09/06 09:05:26;;;;;;;5.53;5.00;;;;;;;23.08;45.21;95384.72;5131280;27;20022;-76
2022/09/06 09:08:09;;;;;;;7.15;5.18;;;;;;;23.01;43.53;95367.94;5112276;27;20230;-77
2022/09/06 09:10:46;;;;;;;6.10;5.50;;;;;;;23.12;44.32;95361.28;5123818;27;20095;-77
2022/09/06 09:13:51;;;;;;;6.57;5.35;;;;;;;23.27;43.39;95364.69;5096028;27;20050;-76
2022/09/06 09:16:17;;;;;;;7.20;5.07;;;;;;;23.40;43.54;95353.34;5149611;27;20053;-75
2022/09/06 09:18:53;;;;;;;5.10;4.60;;;;;;;23.48;42.32;95352.38;5119413;27;20345;-75
2022/09/06 09:21:23;;;;;;;6.82;4.60;;;;;;;23.55;41.27;95343.47;5099896;27;20035;-75
2022/09/06 09:23:57;;;;;;;5.82;5.18;;;;;;;23.67;42.58;95345.56;5107537;28;20554;-76
2022/09/06 09:26:24;;;;;;;6.68;5.32;;;;;;;23.73;42.41;95342.16;5111049;28;20031;-76
2022/09/06 09:29:10;;;;;;;5.63;5.10;;;;;;;23.78;41.93;95337.09;5118457;27;20041;-76
2022/09/06 09:31:41;;;;;;;6.55;4.88;;;;;;;23.84;41.71;95338.97;5112365;27;20031;-76
2022/09/06 09:34:24;;;;;;;6.00;5.40;;;;;;;23.91;41.92;95336.38;5101340;27;20594;-76
2022/09/06 09:37:08;;;;;;;10.20;5.25;;;;;;;23.96;42.00;95334.75;5104397;28;20042;-76
2022/09/06 09:39:35;;;;;;;5.85;5.15;;;;;;;23.93;41.47;95324.53;5116878;27;20019;-76
2022/09/06 09:42:00;;;;;;;6.35;4.85;;;;;;;23.98;41.38;95330.03;5129261;27;20553;-76
2022/09/06 09:44:28;;;;;;;5.10;4.60;;;;;;;24.09;41.50;95326.81;5111422;27;20047;-76
2022/09/06 09:46:54;;;;;;;7.03;4.43;;;;;;;24.23;38.95;95332.19;5119887;27;20114;-76
2022/09/06 09:49:26;;;;;;;6.40;4.45;;;;;;;24.25;38.27;95323.00;5114222;27;20110;-76
2022/09/06 09:52:11;;;;;;;5.63;5.00;;;;;;;24.22;39.46;95325.25;5125673;27;20027;-76
2022/09/06 09:54:39;;;;;;;6.35;4.53;;;;;;;24.29;39.88;95323.41;5130547;27;20412;-76
2022/09/06 09:57:08;;;;;;;5.68;5.00;;;;;;;24.40;40.82;95317.53;5129480;27;20453;-76
2022/09/06 09:59:43;;;;;;;6.57;5.27;;;;;;;24.50;38.56;95319.84;5107024;27;20442;-76
2022/09/06 10:02:22;;;;;;;4.25;3.78;;;;;;;24.53;37.62;95293.69;5127091;27;20462;-76
2022/09/06 10:04:49;;;;;;;8.15;4.05;;;;;;;24.61;37.37;95307.81;5108097;27;20062;-76
2022/09/06 10:07:21;;;;;;;4.20;3.80;;;;;;;24.72;38.04;95317.84;5116360;27;20030;-76
2022/09/06 10:10:04;;;;;;;4.57;4.00;;;;;;;24.67;38.36;95304.34;5128480;27;20023;-76
2022/09/06 10:12:37;;;;;;;4.95;3.72;;;;;;;24.78;37.81;95306.41;5095637;27;20088;-76
2022/09/06 10:15:04;;;;;;;5.07;3.70;;;;;;;24.83;37.90;95303.94;5128724;27;20058;-76
2022/09/06 10:17:30;;;;;;;4.22;3.80;;;;;;;24.88;36.01;95301.50;5113569;27;20027;-76
2022/09/06 10:20:01;;;;;;;4.32;3.60;;;;;;;24.84;36.54;95296.78;5128789;27;20042;-76
2022/09/06 10:22:27;;;;;;;;;;;;;;;24.80;38.13;95296.38;5116600;27;20227;-76
2022/09/06 10:24:57;;;;;;;5.50;3.47;;;;;;;24.91;36.11;95290.47;5117403;27;19934;-77
2022/09/06 10:27:25;;;;;;;4.07;3.50;;;;;;;25.00;35.39;95288.41;5119640;27;20570;-77
2022/09/06 10:29:56;;;;;;;5.00;3.28;;;;;;;25.02;35.82;95280.22;5097276;28;20560;-76
2022/09/06 10:32:33;;;;;;;;;;;;;;;25.13;35.49;95290.22;5110058;28;20043;-76
2022/09/06 10:35:11;;;;;;;3.80;3.40;;;;;;;25.08;35.40;95284.75;5148091;27;20403;-78
2022/09/06 10:37:40;;;;;;;3.85;3.20;;;;;;;25.07;35.31;95285.75;5129563;27;20050;-77
2022/09/06 10:40:08;;;;;;;4.10;3.15;;;;;;;25.13;35.85;95276.94;5128180;28;20237;-78
2022/09/06 10:42:46;;;;;;;4.22;2.90;;;;;;;25.18;35.11;95279.84;5093351;28;20027;-77
2022/09/06 10:45:35;;;;;;;5.53;3.10;;;;;;;25.16;33.73;95266.78;5130137;27;20428;-77
2022/09/06 10:48:06;;;;;;;4.05;2.70;;;;;;;25.23;34.78;95274.72;5119430;28;20466;-78
2022/09/06 10:50:48;;;;;;;3.42;2.90;;;;;;;25.27;34.12;95280.44;5119686;28;20088;-78
2022/09/06 10:53:20;;;;;;;5.15;2.80;;;;;;;25.21;31.57;95274.09;5109063;28;20027;-78
2022/09/06 10:55:48;;;;;;;4.45;2.90;;;;;;;25.11;33.12;95263.06;5129414;28;20054;-78
2022/09/06 10:58:13;;;;;;;4.15;2.85;;;;;;;25.18;32.75;95269.19;5114396;27;20023;-77
2022/09/06 11:00:45;;;;;;;4.43;2.90;;;;;;;25.23;33.36;95271.25;5112350;28;20032;-78
2022/09/06 11:03:29;;;;;;;4.20;2.90;;;;;;;25.27;33.77;95265.31;5111344;27;20079;-78
2022/09/06 11:06:03;;;;;;;3.63;2.92;;;;;;;25.25;32.69;95256.72;5090757;28;20032;-77
2022/09/06 11:08:58;;;;;;;3.95;3.05;;;;;;;25.26;33.54;95263.66;5075831;28;20043;-78
2022/09/06 11:11:46;;;;;;;5.55;2.90;;;;;;;25.26;32.32;95260.19;5122633;28;20043;-78
2022/09/06 11:14:12;;;;;;;5.03;3.08;;;;;;;25.31;34.27;95261.22;5121502;27;20039;-78
2022/09/06 11:16:49;;;;;;;3.92;3.20;;;;;;;25.32;34.24;95254.06;5111922;28;20464;-78
2022/09/06 11:19:20;;;;;;;4.32;3.30;;;;;;;25.38;33.73;95259.38;5109240;28;20081;-77
2022/09/06 11:22:23;;;;;;;3.47;3.17;;;;;;;25.38;34.48;95258.53;5108792;28;20065;-78
2022/09/06 11:25:09;;;;;;;3.78;3.08;;;;;;;25.31;34.70;95261.22;5130939;27;20080;-77
2022/09/06 11:27:39;;;;;;;4.00;3.03;;;;;;;25.35;34.63;95254.47;5130288;27;20188;-77
2022/09/06 11:30:05;;;;;;;4.30;3.10;;;;;;;25.33;34.80;95253.84;5130342;27;20058;-78
2022/09/06 11:32:44;;;;;;;3.53;3.10;;;;;;;25.27;33.40;95256.50;5108184;27;20038;-78
2022/09/06 11:35:20;;;;;;;3.50;2.72;;;;;;;25.10;33.65;95248.13;5115806;27;20039;-78
2022/09/06 11:37:48;;;;;;;4.50;3.10;;;;;;;25.04;33.66;95233.00;5095308;28;20047;-78
2022/09/06 11:40:18;;;;;;;3.97;2.70;;;;;;;25.27;33.66;95248.53;5123460;27;20055;-78
2022/09/06 11:42:43;;;;;;;3.90;2.90;;;;;;;25.36;33.84;95245.47;5106755;27;20019;-78
2022/09/06 11:45:22;;;;;;;3.08;2.78;;;;;;;25.39;34.10;95249.53;5121611;27;20032;-78